sensor_id;sensor_type;location;lat;lon;timestamp;P1;durP1;ratioP1;P2;durP2;ratioP2
68074;SDS011;54864;52.002;5.468;2023-02-26T00:01:00;10.95;;;5.20;;
68074;SDS011;54864;52.002;5.468;2023-02-26T00:02:01;16.92;;;6.15;;
68074;SDS011;54864;52.002;5.468;2023-02-26T00:03:03;12.93;;;5.88;;
68074;SDS011;54864;52.002;5.468;2023-02-26T00:04:05;16.08;;;4.90;;
68074;SDS011;54864;52.002;5.468;2023-02-26T00:05:07;14.02;;;5.63;;
68074;SDS011;54864;52.002;5.468;2023-02-26T00:06:09;12.93;;;5.30;;
68074;SDS011;54864;52.002;5.468;2023-02-26T00:07:11;14.13;;;5.47;;
68074;SDS011;54864;52.002;5.468;2023-02-26T00:08:11;13.57;;;5.27;;
68074;SDS011;54864;52.002;5.468;2023-02-26T00:09:14;16.13;;;5.30;;
68074;SDS011;54864;52.002;5.468;2023-02-26T00:10:15;16.83;;;5.80;;
68074;SDS011;54864;52.002;5.468;2023-02-26T00:11:17;15.20;;;5.35;;
68074;SDS011;54864;52.002;5.468;2023-02-26T00:12:18;11.88;;;4.88;;
68074;SDS011;54864;52.002;5.468;2023-02-26T00:13:21;12.00;;;4.75;;
68074;SDS011;54864;52.002;5.468;2023-02-26T00:14:22;9.95;;;4.80;;
68074;SDS011;54864;52.002;5.468;2023-02-26T00:15:24;13.35;;;4.28;;
68074;SDS011;54864;52.002;5.468;2023-02-26T00:16:26;15.13;;;4.63;;
68074;SDS011;54864;52.002;5.468;2023-02-26T00:17:36;11.43;;;4.30;;
68074;SDS011;54864;52.002;5.468;2023-02-26T00:18:44;13.50;;;3.90;;
68074;SDS011;54864;52.002;5.468;2023-02-26T00:19:47;10.48;;;4.03;;
68074;SDS011;54864;52.002;5.468;2023-02-26T00:20:48;9.87;;;3.83;;
68074;SDS011;54864;52.002;5.468;2023-02-26T00:21:53;15.18;;;4.40;;
68074;SDS011;54864;52.002;5.468;2023-02-26T00:22:55;11.93;;;3.95;;
68074;SDS011;54864;52.002;5.468;2023-02-26T00:23:57;15.15;;;4.40;;
68074;SDS011;54864;52.002;5.468;2023-02-26T00:24:59;11.02;;;4.00;;
68074;SDS011;54864;52.002;5.468;2023-02-26T00:26:01;9.15;;;3.30;;
68074;SDS011;54864;52.002;5.468;2023-02-26T00:27:02;10.57;;;3.90;;
68074;SDS011;54864;52.002;5.468;2023-02-26T00:28:04;15.13;;;4.43;;
68074;SDS011;54864;52.002;5.468;2023-02-26T00:29:06;13.48;;;4.30;;
68074;SDS011;54864;52.002;5.468;2023-02-26T00:30:08;11.32;;;3.88;;
68074;SDS011;54864;52.002;5.468;2023-02-26T00:31:11;12.00;;;3.33;;
68074;SDS011;54864;52.002;5.468;2023-02-26T00:32:14;8.90;;;4.05;;
68074;SDS011;54864;52.002;5.468;2023-02-26T00:33:17;8.75;;;3.92;;
68074;SDS011;54864;52.002;5.468;2023-02-26T00:34:18;9.80;;;3.38;;
68074;SDS011;54864;52.002;5.468;2023-02-26T00:35:21;10.20;;;3.50;;
68074;SDS011;54864;52.002;5.468;2023-02-26T00:36:23;13.38;;;3.90;;
68074;SDS011;54864;52.002;5.468;2023-02-26T00:37:32;10.25;;;3.47;;
68074;SDS011;54864;52.002;5.468;2023-02-26T00:38:43;13.75;;;3.33;;
68074;SDS011;54864;52.002;5.468;2023-02-26T00:39:55;8.63;;;3.20;;
68074;SDS011;54864;52.002;5.468;2023-02-26T00:41:04;12.75;;;3.33;;
68074;SDS011;54864;52.002;5.468;2023-02-26T00:42:09;8.25;;;3.10;;
68074;SDS011;54864;52.002;5.468;2023-02-26T00:43:13;10.60;;;3.40;;
68074;SDS011;54864;52.002;5.468;2023-02-26T00:44:17;13.48;;;3.55;;
68074;SDS011;54864;52.002;5.468;2023-02-26T00:45:19;11.52;;;3.60;;
68074;SDS011;54864;52.002;5.468;2023-02-26T00:46:23;13.00;;;3.60;;
68074;SDS011;54864;52.002;5.468;2023-02-26T00:47:33;9.05;;;2.97;;
68074;SDS011;54864;52.002;5.468;2023-02-26T00:48:45;8.15;;;3.42;;
68074;SDS011;54864;52.002;5.468;2023-02-26T00:49:55;10.23;;;3.30;;
68074;SDS011;54864;52.002;5.468;2023-02-26T00:51:07;11.85;;;3.70;;
68074;SDS011;54864;52.002;5.468;2023-02-26T00:52:14;11.25;;;3.00;;
68074;SDS011;54864;52.002;5.468;2023-02-26T00:53:25;11.93;;;3.40;;
68074;SDS011;54864;52.002;5.468;2023-02-26T00:54:30;7.63;;;3.22;;
68074;SDS011;54864;52.002;5.468;2023-02-26T00:55:33;11.52;;;3.15;;
68074;SDS011;54864;52.002;5.468;2023-02-26T00:56:34;11.35;;;3.00;;
68074;SDS011;54864;52.002;5.468;2023-02-26T00:57:36;9.45;;;2.83;;
68074;SDS011;54864;52.002;5.468;2023-02-26T00:58:37;11.43;;;2.83;;
68074;SDS011;54864;52.002;5.468;2023-02-26T00:59:39;9.20;;;2.90;;
68074;SDS011;54864;52.002;5.468;2023-02-26T01:00:39;10.25;;;2.75;;
68074;SDS011;54864;52.002;5.468;2023-02-26T01:01:41;9.77;;;3.13;;
68074;SDS011;54864;52.002;5.468;2023-02-26T01:02:42;10.55;;;3.05;;
68074;SDS011;54864;52.002;5.468;2023-02-26T01:03:44;9.85;;;2.88;;
68074;SDS011;54864;52.002;5.468;2023-02-26T01:04:46;10.70;;;2.85;;
68074;SDS011;54864;52.002;5.468;2023-02-26T01:05:48;8.68;;;2.83;;
68074;SDS011;54864;52.002;5.468;2023-02-26T01:06:50;7.80;;;2.80;;
68074;SDS011;54864;52.002;5.468;2023-02-26T01:07:56;9.00;;;2.85;;
68074;SDS011;54864;52.002;5.468;2023-02-26T01:09:02;7.75;;;3.00;;
68074;SDS011;54864;52.002;5.468;2023-02-26T01:10:10;8.37;;;3.03;;
68074;SDS011;54864;52.002;5.468;2023-02-26T01:11:14;10.70;;;2.53;;
68074;SDS011;54864;52.002;5.468;2023-02-26T01:12:16;9.63;;;2.95;;
68074;SDS011;54864;52.002;5.468;2023-02-26T01:13:17;10.35;;;3.05;;
68074;SDS011;54864;52.002;5.468;2023-02-26T01:14:20;11.50;;;2.95;;
68074;SDS011;54864;52.002;5.468;2023-02-26T01:15:22;13.43;;;3.00;;
68074;SDS011;54864;52.002;5.468;2023-02-26T01:16:25;8.15;;;2.58;;
68074;SDS011;54864;52.002;5.468;2023-02-26T01:17:31;9.57;;;2.70;;
68074;SDS011;54864;52.002;5.468;2023-02-26T01:18:37;8.73;;;2.50;;
68074;SDS011;54864;52.002;5.468;2023-02-26T01:19:44;9.57;;;2.80;;
68074;SDS011;54864;52.002;5.468;2023-02-26T01:20:52;9.18;;;2.80;;
68074;SDS011;54864;52.002;5.468;2023-02-26T01:21:59;10.75;;;3.38;;
68074;SDS011;54864;52.002;5.468;2023-02-26T01:23:08;9.68;;;2.45;;
68074;SDS011;54864;52.002;5.468;2023-02-26T01:24:12;9.87;;;2.80;;
68074;SDS011;54864;52.002;5.468;2023-02-26T01:25:18;8.95;;;2.53;;
68074;SDS011;54864;52.002;5.468;2023-02-26T01:26:26;8.40;;;3.00;;
68074;SDS011;54864;52.002;5.468;2023-02-26T01:27:29;6.88;;;2.55;;
68074;SDS011;54864;52.002;5.468;2023-02-26T01:28:30;9.32;;;2.70;;
68074;SDS011;54864;52.002;5.468;2023-02-26T01:29:33;11.23;;;3.55;;
68074;SDS011;54864;52.002;5.468;2023-02-26T01:30:34;11.53;;;2.50;;
68074;SDS011;54864;52.002;5.468;2023-02-26T01:31:41;8.68;;;2.85;;
68074;SDS011;54864;52.002;5.468;2023-02-26T01:32:50;10.25;;;2.63;;
68074;SDS011;54864;52.002;5.468;2023-02-26T01:33:59;6.32;;;3.03;;
68074;SDS011;54864;52.002;5.468;2023-02-26T01:35:10;6.13;;;2.38;;
68074;SDS011;54864;52.002;5.468;2023-02-26T01:36:21;9.27;;;2.90;;
68074;SDS011;54864;52.002;5.468;2023-02-26T01:37:25;11.15;;;3.15;;
68074;SDS011;54864;52.002;5.468;2023-02-26T01:38:35;9.68;;;2.30;;
68074;SDS011;54864;52.002;5.468;2023-02-26T01:39:45;13.68;;;2.67;;
68074;SDS011;54864;52.002;5.468;2023-02-26T01:41:01;11.63;;;2.70;;
68074;SDS011;54864;52.002;5.468;2023-02-26T01:42:14;6.63;;;2.50;;
68074;SDS011;54864;52.002;5.468;2023-02-26T01:43:18;9.85;;;3.05;;
68074;SDS011;54864;52.002;5.468;2023-02-26T01:44:25;7.82;;;2.45;;
68074;SDS011;54864;52.002;5.468;2023-02-26T01:45:31;7.07;;;2.42;;
68074;SDS011;54864;52.002;5.468;2023-02-26T01:46:43;8.80;;;2.80;;
68074;SDS011;54864;52.002;5.468;2023-02-26T01:47:55;9.63;;;2.83;;
68074;SDS011;54864;52.002;5.468;2023-02-26T01:49:02;12.52;;;2.78;;
68074;SDS011;54864;52.002;5.468;2023-02-26T01:50:09;10.75;;;2.53;;
68074;SDS011;54864;52.002;5.468;2023-02-26T01:51:13;9.07;;;2.50;;
68074;SDS011;54864;52.002;5.468;2023-02-26T01:54:02;8.40;;;2.35;;
68074;SDS011;54864;52.002;5.468;2023-02-26T01:55:03;7.53;;;2.83;;
68074;SDS011;54864;52.002;5.468;2023-02-26T01:56:08;5.10;;;2.10;;
68074;SDS011;54864;52.002;5.468;2023-02-26T01:57:14;8.70;;;2.65;;
68074;SDS011;54864;52.002;5.468;2023-02-26T01:58:18;13.07;;;2.55;;
68074;SDS011;54864;52.002;5.468;2023-02-26T01:59:21;10.07;;;2.70;;
68074;SDS011;54864;52.002;5.468;2023-02-26T02:00:24;9.40;;;3.05;;
68074;SDS011;54864;52.002;5.468;2023-02-26T02:01:25;9.13;;;2.22;;
68074;SDS011;54864;52.002;5.468;2023-02-26T02:02:27;10.70;;;2.67;;
68074;SDS011;54864;52.002;5.468;2023-02-26T02:03:29;7.97;;;2.42;;
68074;SDS011;54864;52.002;5.468;2023-02-26T02:04:34;11.10;;;2.67;;
68074;SDS011;54864;52.002;5.468;2023-02-26T02:05:38;11.50;;;2.88;;
68074;SDS011;54864;52.002;5.468;2023-02-26T02:06:43;8.75;;;2.67;;
68074;SDS011;54864;52.002;5.468;2023-02-26T02:07:46;7.70;;;2.50;;
68074;SDS011;54864;52.002;5.468;2023-02-26T02:08:47;12.47;;;3.00;;
68074;SDS011;54864;52.002;5.468;2023-02-26T02:09:49;9.23;;;2.58;;
68074;SDS011;54864;52.002;5.468;2023-02-26T02:10:50;13.90;;;2.47;;
68074;SDS011;54864;52.002;5.468;2023-02-26T02:12:03;9.63;;;2.55;;
68074;SDS011;54864;52.002;5.468;2023-02-26T02:13:12;8.43;;;2.35;;
68074;SDS011;54864;52.002;5.468;2023-02-26T02:14:26;10.75;;;2.80;;
68074;SDS011;54864;52.002;5.468;2023-02-26T02:15:37;8.60;;;2.67;;
68074;SDS011;54864;52.002;5.468;2023-02-26T02:16:46;6.72;;;2.30;;
68074;SDS011;54864;52.002;5.468;2023-02-26T02:17:54;11.02;;;2.47;;
68074;SDS011;54864;52.002;5.468;2023-02-26T02:19:06;8.32;;;2.35;;
68074;SDS011;54864;52.002;5.468;2023-02-26T02:20:24;10.80;;;2.92;;
68074;SDS011;54864;52.002;5.468;2023-02-26T02:23:06;11.10;;;2.50;;
68074;SDS011;54864;52.002;5.468;2023-02-26T02:24:11;14.00;;;2.83;;
68074;SDS011;54864;52.002;5.468;2023-02-26T02:27:02;10.20;;;2.90;;
68074;SDS011;54864;52.002;5.468;2023-02-26T02:28:12;11.80;;;2.47;;
68074;SDS011;54864;52.002;5.468;2023-02-26T02:31:03;12.02;;;2.80;;
68074;SDS011;54864;52.002;5.468;2023-02-26T02:32:09;11.32;;;2.78;;
68074;SDS011;54864;52.002;5.468;2023-02-26T02:33:16;11.93;;;3.15;;
68074;SDS011;54864;52.002;5.468;2023-02-26T02:34:21;12.18;;;2.67;;
68074;SDS011;54864;52.002;5.468;2023-02-26T02:35:27;12.45;;;2.90;;
68074;SDS011;54864;52.002;5.468;2023-02-26T02:36:33;11.90;;;2.63;;
68074;SDS011;54864;52.002;5.468;2023-02-26T02:37:40;13.90;;;2.83;;
68074;SDS011;54864;52.002;5.468;2023-02-26T02:38:46;11.57;;;2.58;;
68074;SDS011;54864;52.002;5.468;2023-02-26T02:39:53;6.78;;;2.70;;
68074;SDS011;54864;52.002;5.468;2023-02-26T02:41:02;9.77;;;2.35;;
68074;SDS011;54864;52.002;5.468;2023-02-26T02:42:07;13.05;;;2.42;;
68074;SDS011;54864;52.002;5.468;2023-02-26T02:43:20;10.90;;;2.80;;
68074;SDS011;54864;52.002;5.468;2023-02-26T02:44:27;9.98;;;2.63;;
68074;SDS011;54864;52.002;5.468;2023-02-26T02:45:34;8.97;;;2.70;;
68074;SDS011;54864;52.002;5.468;2023-02-26T02:46:46;11.05;;;2.58;;
68074;SDS011;54864;52.002;5.468;2023-02-26T02:47:53;6.40;;;2.60;;
68074;SDS011;54864;52.002;5.468;2023-02-26T02:49:00;9.02;;;2.55;;
68074;SDS011;54864;52.002;5.468;2023-02-26T02:50:04;7.95;;;2.28;;
68074;SDS011;54864;52.002;5.468;2023-02-26T02:51:11;7.70;;;2.33;;
68074;SDS011;54864;52.002;5.468;2023-02-26T02:52:20;12.23;;;2.58;;
68074;SDS011;54864;52.002;5.468;2023-02-26T02:53:27;10.25;;;2.88;;
68074;SDS011;54864;52.002;5.468;2023-02-26T02:54:33;13.40;;;2.58;;
68074;SDS011;54864;52.002;5.468;2023-02-26T02:55:45;8.85;;;2.15;;
68074;SDS011;54864;52.002;5.468;2023-02-26T02:56:51;10.00;;;2.40;;
68074;SDS011;54864;52.002;5.468;2023-02-26T02:57:57;8.85;;;2.38;;
68074;SDS011;54864;52.002;5.468;2023-02-26T02:59:01;8.32;;;2.50;;
68074;SDS011;54864;52.002;5.468;2023-02-26T03:00:10;8.73;;;2.20;;
68074;SDS011;54864;52.002;5.468;2023-02-26T03:01:14;7.45;;;2.42;;
68074;SDS011;54864;52.002;5.468;2023-02-26T03:02:22;9.75;;;2.25;;
68074;SDS011;54864;52.002;5.468;2023-02-26T03:03:30;13.02;;;3.15;;
68074;SDS011;54864;52.002;5.468;2023-02-26T03:04:37;11.13;;;2.30;;
68074;SDS011;54864;52.002;5.468;2023-02-26T03:05:45;8.48;;;2.20;;
68074;SDS011;54864;52.002;5.468;2023-02-26T03:06:47;9.73;;;2.55;;
68074;SDS011;54864;52.002;5.468;2023-02-26T03:07:50;13.60;;;2.83;;
68074;SDS011;54864;52.002;5.468;2023-02-26T03:08:55;9.18;;;2.60;;
68074;SDS011;54864;52.002;5.468;2023-02-26T03:09:57;8.88;;;2.47;;
68074;SDS011;54864;52.002;5.468;2023-02-26T03:10:59;9.15;;;2.08;;
68074;SDS011;54864;52.002;5.468;2023-02-26T03:12:00;16.15;;;2.60;;
68074;SDS011;54864;52.002;5.468;2023-02-26T03:13:02;10.68;;;2.70;;
68074;SDS011;54864;52.002;5.468;2023-02-26T03:14:04;10.60;;;2.47;;
68074;SDS011;54864;52.002;5.468;2023-02-26T03:15:09;13.50;;;2.35;;
68074;SDS011;54864;52.002;5.468;2023-02-26T03:16:17;10.25;;;2.60;;
68074;SDS011;54864;52.002;5.468;2023-02-26T03:17:32;9.13;;;2.20;;
68074;SDS011;54864;52.002;5.468;2023-02-26T03:18:48;10.35;;;2.70;;
68074;SDS011;54864;52.002;5.468;2023-02-26T03:20:05;8.90;;;2.13;;
68074;SDS011;54864;52.002;5.468;2023-02-26T03:21:16;11.27;;;2.90;;
68074;SDS011;54864;52.002;5.468;2023-02-26T03:22:23;11.93;;;2.55;;
68074;SDS011;54864;52.002;5.468;2023-02-26T03:23:33;10.85;;;2.53;;
68074;SDS011;54864;52.002;5.468;2023-02-26T03:24:45;9.77;;;2.15;;
68074;SDS011;54864;52.002;5.468;2023-02-26T03:25:50;11.38;;;2.38;;
68074;SDS011;54864;52.002;5.468;2023-02-26T03:26:58;8.77;;;2.50;;
68074;SDS011;54864;52.002;5.468;2023-02-26T03:28:06;13.20;;;2.83;;
68074;SDS011;54864;52.002;5.468;2023-02-26T03:29:14;9.05;;;2.38;;
68074;SDS011;54864;52.002;5.468;2023-02-26T03:30:20;8.43;;;2.17;;
68074;SDS011;54864;52.002;5.468;2023-02-26T03:31:28;3.67;;;1.87;;
68074;SDS011;54864;52.002;5.468;2023-02-26T03:32:39;11.45;;;2.58;;
68074;SDS011;54864;52.002;5.468;2023-02-26T03:33:46;9.25;;;1.98;;
68074;SDS011;54864;52.002;5.468;2023-02-26T03:34:54;9.37;;;2.27;;
68074;SDS011;54864;52.002;5.468;2023-02-26T03:36:05;7.35;;;2.38;;
68074;SDS011;54864;52.002;5.468;2023-02-26T03:37:12;9.70;;;2.30;;
68074;SDS011;54864;52.002;5.468;2023-02-26T03:38:20;12.85;;;2.90;;
68074;SDS011;54864;52.002;5.468;2023-02-26T03:39:28;7.60;;;2.13;;
68074;SDS011;54864;52.002;5.468;2023-02-26T03:40:36;9.35;;;2.00;;
68074;SDS011;54864;52.002;5.468;2023-02-26T03:41:45;7.55;;;2.30;;
68074;SDS011;54864;52.002;5.468;2023-02-26T03:42:52;7.50;;;2.30;;
68074;SDS011;54864;52.002;5.468;2023-02-26T03:43:58;8.35;;;2.22;;
68074;SDS011;54864;52.002;5.468;2023-02-26T03:45:08;12.45;;;2.30;;
68074;SDS011;54864;52.002;5.468;2023-02-26T03:46:13;10.82;;;2.03;;
68074;SDS011;54864;52.002;5.468;2023-02-26T03:47:18;10.90;;;2.53;;
68074;SDS011;54864;52.002;5.468;2023-02-26T03:48:22;7.75;;;1.98;;
68074;SDS011;54864;52.002;5.468;2023-02-26T03:49:30;11.55;;;2.55;;
68074;SDS011;54864;52.002;5.468;2023-02-26T03:50:35;10.85;;;2.17;;
68074;SDS011;54864;52.002;5.468;2023-02-26T03:51:42;9.95;;;2.63;;
68074;SDS011;54864;52.002;5.468;2023-02-26T03:52:46;15.80;;;2.70;;
68074;SDS011;54864;52.002;5.468;2023-02-26T03:53:51;9.60;;;2.42;;
68074;SDS011;54864;52.002;5.468;2023-02-26T03:54:59;7.50;;;2.95;;
68074;SDS011;54864;52.002;5.468;2023-02-26T03:56:07;8.07;;;2.28;;
68074;SDS011;54864;52.002;5.468;2023-02-26T03:57:14;9.02;;;2.35;;
68074;SDS011;54864;52.002;5.468;2023-02-26T03:58:16;7.85;;;2.00;;
68074;SDS011;54864;52.002;5.468;2023-02-26T03:59:17;8.20;;;2.42;;
68074;SDS011;54864;52.002;5.468;2023-02-26T04:00:19;10.13;;;2.75;;
68074;SDS011;54864;52.002;5.468;2023-02-26T04:01:21;7.65;;;2.00;;
68074;SDS011;54864;52.002;5.468;2023-02-26T04:02:28;7.28;;;2.58;;
68074;SDS011;54864;52.002;5.468;2023-02-26T04:03:36;4.95;;;2.03;;
68074;SDS011;54864;52.002;5.468;2023-02-26T04:04:45;7.73;;;2.20;;
68074;SDS011;54864;52.002;5.468;2023-02-26T04:05:51;12.20;;;2.42;;
68074;SDS011;54864;52.002;5.468;2023-02-26T04:06:53;11.90;;;2.45;;
68074;SDS011;54864;52.002;5.468;2023-02-26T04:07:55;8.02;;;2.10;;
68074;SDS011;54864;52.002;5.468;2023-02-26T04:08:57;7.60;;;2.22;;
68074;SDS011;54864;52.002;5.468;2023-02-26T04:09:59;6.77;;;2.20;;
68074;SDS011;54864;52.002;5.468;2023-02-26T04:11:04;8.10;;;1.90;;
68074;SDS011;54864;52.002;5.468;2023-02-26T04:12:09;12.95;;;2.17;;
68074;SDS011;54864;52.002;5.468;2023-02-26T04:13:10;9.27;;;2.38;;
68074;SDS011;54864;52.002;5.468;2023-02-26T04:14:12;8.98;;;2.28;;
68074;SDS011;54864;52.002;5.468;2023-02-26T04:15:12;9.83;;;2.10;;
68074;SDS011;54864;52.002;5.468;2023-02-26T04:16:15;11.35;;;2.25;;
68074;SDS011;54864;52.002;5.468;2023-02-26T04:17:16;5.40;;;2.40;;
68074;SDS011;54864;52.002;5.468;2023-02-26T04:18:18;4.03;;;1.92;;
68074;SDS011;54864;52.002;5.468;2023-02-26T04:19:20;8.32;;;2.20;;
68074;SDS011;54864;52.002;5.468;2023-02-26T04:20:22;9.32;;;2.33;;
68074;SDS011;54864;52.002;5.468;2023-02-26T04:21:22;9.57;;;2.30;;
68074;SDS011;54864;52.002;5.468;2023-02-26T04:22:25;8.32;;;2.13;;
68074;SDS011;54864;52.002;5.468;2023-02-26T04:23:25;5.38;;;2.15;;
68074;SDS011;54864;52.002;5.468;2023-02-26T04:24:27;9.02;;;2.38;;
68074;SDS011;54864;52.002;5.468;2023-02-26T04:25:28;7.07;;;2.08;;
68074;SDS011;54864;52.002;5.468;2023-02-26T04:26:30;5.47;;;1.92;;
68074;SDS011;54864;52.002;5.468;2023-02-26T04:27:31;5.50;;;2.00;;
68074;SDS011;54864;52.002;5.468;2023-02-26T04:28:33;8.05;;;2.15;;
68074;SDS011;54864;52.002;5.468;2023-02-26T04:29:34;8.55;;;1.98;;
68074;SDS011;54864;52.002;5.468;2023-02-26T04:30:36;7.75;;;2.17;;
68074;SDS011;54864;52.002;5.468;2023-02-26T04:31:37;7.75;;;2.30;;
68074;SDS011;54864;52.002;5.468;2023-02-26T04:32:42;8.02;;;2.53;;
68074;SDS011;54864;52.002;5.468;2023-02-26T04:33:43;7.15;;;2.30;;
68074;SDS011;54864;52.002;5.468;2023-02-26T04:34:46;13.35;;;2.45;;
68074;SDS011;54864;52.002;5.468;2023-02-26T04:35:47;9.02;;;2.15;;
68074;SDS011;54864;52.002;5.468;2023-02-26T04:36:49;9.43;;;2.33;;
68074;SDS011;54864;52.002;5.468;2023-02-26T04:37:50;7.93;;;2.38;;
68074;SDS011;54864;52.002;5.468;2023-02-26T04:38:52;9.52;;;2.70;;
68074;SDS011;54864;52.002;5.468;2023-02-26T04:39:53;10.60;;;2.25;;
68074;SDS011;54864;52.002;5.468;2023-02-26T04:40:55;9.82;;;2.25;;
68074;SDS011;54864;52.002;5.468;2023-02-26T04:41:56;7.67;;;1.97;;
68074;SDS011;54864;52.002;5.468;2023-02-26T04:42:58;7.32;;;1.88;;
68074;SDS011;54864;52.002;5.468;2023-02-26T04:43:59;7.50;;;2.17;;
68074;SDS011;54864;52.002;5.468;2023-02-26T04:45:04;8.60;;;2.17;;
68074;SDS011;54864;52.002;5.468;2023-02-26T04:46:05;8.98;;;2.58;;
68074;SDS011;54864;52.002;5.468;2023-02-26T04:47:10;9.73;;;2.60;;
68074;SDS011;54864;52.002;5.468;2023-02-26T04:48:10;8.70;;;2.40;;
68074;SDS011;54864;52.002;5.468;2023-02-26T04:49:12;9.50;;;2.30;;
68074;SDS011;54864;52.002;5.468;2023-02-26T04:50:15;6.70;;;2.17;;
68074;SDS011;54864;52.002;5.468;2023-02-26T04:51:17;8.65;;;2.10;;
68074;SDS011;54864;52.002;5.468;2023-02-26T04:52:18;10.27;;;2.13;;
68074;SDS011;54864;52.002;5.468;2023-02-26T04:53:19;6.57;;;2.08;;
68074;SDS011;54864;52.002;5.468;2023-02-26T04:54:21;8.93;;;2.20;;
68074;SDS011;54864;52.002;5.468;2023-02-26T04:55:22;6.37;;;2.20;;
68074;SDS011;54864;52.002;5.468;2023-02-26T04:56:24;6.32;;;2.10;;
68074;SDS011;54864;52.002;5.468;2023-02-26T04:57:25;6.45;;;1.83;;
68074;SDS011;54864;52.002;5.468;2023-02-26T04:58:27;6.72;;;2.38;;
68074;SDS011;54864;52.002;5.468;2023-02-26T04:59:28;12.87;;;2.53;;
68074;SDS011;54864;52.002;5.468;2023-02-26T05:00:29;8.20;;;2.40;;
68074;SDS011;54864;52.002;5.468;2023-02-26T05:01:30;11.10;;;2.20;;
68074;SDS011;54864;52.002;5.468;2023-02-26T05:02:32;11.55;;;2.13;;
68074;SDS011;54864;52.002;5.468;2023-02-26T05:03:33;6.80;;;2.20;;
68074;SDS011;54864;52.002;5.468;2023-02-26T05:04:34;7.50;;;2.40;;
68074;SDS011;54864;52.002;5.468;2023-02-26T05:05:40;10.57;;;2.65;;
68074;SDS011;54864;52.002;5.468;2023-02-26T05:06:44;6.03;;;2.25;;
68074;SDS011;54864;52.002;5.468;2023-02-26T05:07:45;8.55;;;1.95;;
68074;SDS011;54864;52.002;5.468;2023-02-26T05:08:47;9.77;;;2.00;;
68074;SDS011;54864;52.002;5.468;2023-02-26T05:09:48;9.48;;;2.45;;
68074;SDS011;54864;52.002;5.468;2023-02-26T05:10:50;8.30;;;2.13;;
68074;SDS011;54864;52.002;5.468;2023-02-26T05:11:51;7.68;;;2.28;;
68074;SDS011;54864;52.002;5.468;2023-02-26T05:12:53;9.43;;;2.22;;
68074;SDS011;54864;52.002;5.468;2023-02-26T05:13:54;8.07;;;2.17;;
68074;SDS011;54864;52.002;5.468;2023-02-26T05:14:56;6.63;;;2.05;;
68074;SDS011;54864;52.002;5.468;2023-02-26T05:15:57;8.77;;;1.67;;
68074;SDS011;54864;52.002;5.468;2023-02-26T05:16:59;11.20;;;2.58;;
68074;SDS011;54864;52.002;5.468;2023-02-26T05:17:59;6.10;;;2.00;;
68074;SDS011;54864;52.002;5.468;2023-02-26T05:19:01;7.70;;;2.08;;
68074;SDS011;54864;52.002;5.468;2023-02-26T05:20:02;5.32;;;2.08;;
68074;SDS011;54864;52.002;5.468;2023-02-26T05:21:06;7.95;;;2.05;;
68074;SDS011;54864;52.002;5.468;2023-02-26T05:22:07;7.47;;;1.85;;
68074;SDS011;54864;52.002;5.468;2023-02-26T05:23:09;6.18;;;2.08;;
68074;SDS011;54864;52.002;5.468;2023-02-26T05:24:10;7.20;;;1.75;;
68074;SDS011;54864;52.002;5.468;2023-02-26T05:25:11;7.47;;;2.00;;
68074;SDS011;54864;52.002;5.468;2023-02-26T05:26:12;7.43;;;2.35;;
68074;SDS011;54864;52.002;5.468;2023-02-26T05:27:14;8.25;;;2.00;;
68074;SDS011;54864;52.002;5.468;2023-02-26T05:28:15;7.72;;;2.40;;
68074;SDS011;54864;52.002;5.468;2023-02-26T05:29:17;8.43;;;2.63;;
68074;SDS011;54864;52.002;5.468;2023-02-26T05:30:18;12.80;;;2.20;;
68074;SDS011;54864;52.002;5.468;2023-02-26T05:31:20;7.35;;;2.05;;
68074;SDS011;54864;52.002;5.468;2023-02-26T05:32:21;6.72;;;2.35;;
68074;SDS011;54864;52.002;5.468;2023-02-26T05:33:23;7.47;;;2.00;;
68074;SDS011;54864;52.002;5.468;2023-02-26T05:34:24;10.70;;;2.28;;
68074;SDS011;54864;52.002;5.468;2023-02-26T05:35:26;5.20;;;2.13;;
68074;SDS011;54864;52.002;5.468;2023-02-26T05:36:28;9.40;;;2.17;;
68074;SDS011;54864;52.002;5.468;2023-02-26T05:37:30;9.73;;;2.92;;
68074;SDS011;54864;52.002;5.468;2023-02-26T05:38:31;7.88;;;1.90;;
68074;SDS011;54864;52.002;5.468;2023-02-26T05:39:35;5.40;;;2.25;;
68074;SDS011;54864;52.002;5.468;2023-02-26T05:40:36;7.85;;;2.42;;
68074;SDS011;54864;52.002;5.468;2023-02-26T05:41:38;11.30;;;2.47;;
68074;SDS011;54864;52.002;5.468;2023-02-26T05:42:45;7.95;;;2.08;;
68074;SDS011;54864;52.002;5.468;2023-02-26T05:43:47;6.53;;;2.40;;
68074;SDS011;54864;52.002;5.468;2023-02-26T05:44:47;5.63;;;2.00;;
68074;SDS011;54864;52.002;5.468;2023-02-26T05:45:49;12.23;;;2.17;;
68074;SDS011;54864;52.002;5.468;2023-02-26T05:46:50;8.60;;;2.28;;
68074;SDS011;54864;52.002;5.468;2023-02-26T05:47:52;7.38;;;1.95;;
68074;SDS011;54864;52.002;5.468;2023-02-26T05:48:53;9.97;;;2.03;;
68074;SDS011;54864;52.002;5.468;2023-02-26T05:49:55;7.97;;;2.08;;
68074;SDS011;54864;52.002;5.468;2023-02-26T05:50:55;6.45;;;2.22;;
68074;SDS011;54864;52.002;5.468;2023-02-26T05:51:59;7.63;;;1.98;;
68074;SDS011;54864;52.002;5.468;2023-02-26T05:52:59;6.07;;;2.00;;
68074;SDS011;54864;52.002;5.468;2023-02-26T05:54:01;9.05;;;2.40;;
68074;SDS011;54864;52.002;5.468;2023-02-26T05:55:02;7.03;;;2.33;;
68074;SDS011;54864;52.002;5.468;2023-02-26T05:56:05;9.35;;;1.95;;
68074;SDS011;54864;52.002;5.468;2023-02-26T05:57:06;6.15;;;2.13;;
68074;SDS011;54864;52.002;5.468;2023-02-26T05:58:09;9.30;;;2.40;;
68074;SDS011;54864;52.002;5.468;2023-02-26T05:59:10;9.77;;;2.42;;
68074;SDS011;54864;52.002;5.468;2023-02-26T06:00:12;9.57;;;2.33;;
68074;SDS011;54864;52.002;5.468;2023-02-26T06:01:14;8.68;;;2.30;;
68074;SDS011;54864;52.002;5.468;2023-02-26T06:02:15;9.10;;;2.58;;
68074;SDS011;54864;52.002;5.468;2023-02-26T06:03:18;8.15;;;2.53;;
68074;SDS011;54864;52.002;5.468;2023-02-26T06:04:20;6.63;;;2.17;;
68074;SDS011;54864;52.002;5.468;2023-02-26T06:05:21;6.40;;;2.45;;
68074;SDS011;54864;52.002;5.468;2023-02-26T06:06:23;12.47;;;2.23;;
68074;SDS011;54864;52.002;5.468;2023-02-26T06:07:27;8.60;;;2.55;;
68074;SDS011;54864;52.002;5.468;2023-02-26T06:08:28;11.60;;;2.50;;
68074;SDS011;54864;52.002;5.468;2023-02-26T06:09:29;11.40;;;2.60;;
68074;SDS011;54864;52.002;5.468;2023-02-26T06:10:32;6.10;;;2.15;;
68074;SDS011;54864;52.002;5.468;2023-02-26T06:11:33;6.68;;;2.15;;
68074;SDS011;54864;52.002;5.468;2023-02-26T06:12:35;7.63;;;2.20;;
68074;SDS011;54864;52.002;5.468;2023-02-26T06:13:36;5.82;;;2.20;;
68074;SDS011;54864;52.002;5.468;2023-02-26T06:14:38;6.65;;;2.30;;
68074;SDS011;54864;52.002;5.468;2023-02-26T06:15:46;9.80;;;2.17;;
68074;SDS011;54864;52.002;5.468;2023-02-26T06:16:49;9.32;;;2.85;;
68074;SDS011;54864;52.002;5.468;2023-02-26T06:17:50;9.50;;;2.30;;
68074;SDS011;54864;52.002;5.468;2023-02-26T06:18:52;4.95;;;2.08;;
68074;SDS011;54864;52.002;5.468;2023-02-26T06:19:53;6.60;;;2.10;;
68074;SDS011;54864;52.002;5.468;2023-02-26T06:20:54;11.07;;;2.88;;
68074;SDS011;54864;52.002;5.468;2023-02-26T06:21:55;10.98;;;2.33;;
68074;SDS011;54864;52.002;5.468;2023-02-26T06:22:58;6.80;;;2.15;;
68074;SDS011;54864;52.002;5.468;2023-02-26T06:23:59;7.47;;;2.40;;
68074;SDS011;54864;52.002;5.468;2023-02-26T06:25:01;9.13;;;2.25;;
68074;SDS011;54864;52.002;5.468;2023-02-26T06:26:02;6.75;;;2.00;;
68074;SDS011;54864;52.002;5.468;2023-02-26T06:27:04;6.32;;;1.90;;
68074;SDS011;54864;52.002;5.468;2023-02-26T06:28:08;5.22;;;2.00;;
68074;SDS011;54864;52.002;5.468;2023-02-26T06:29:10;7.57;;;2.15;;
68074;SDS011;54864;52.002;5.468;2023-02-26T06:30:11;7.22;;;2.00;;
68074;SDS011;54864;52.002;5.468;2023-02-26T06:31:13;5.40;;;1.92;;
68074;SDS011;54864;52.002;5.468;2023-02-26T06:32:14;8.77;;;2.13;;